Chatsworth, California
Current Conditions -  °F | °C
As of 11:51 AM on Friday 31 Oct 2014 (Local Time) from KVNY Reporting Station
Overcast Overcast  
Wind Chill: 67°   Ceiling: 3800
Heat Index: 67°   Visibility: 10mi
Dew Point: 53°   Wind: 6mph
Humidity: 61%   Direction: 220°SW
Pressure: 29.95"   Gusts: NA
Location:  34.26°N, 118.6°W
Report Text: KVNY 311851Z 22005KT 10SM OVC038 19/12 A2995 RMK AO2 SLP135 T01940117
Loading
Personal Weather Stations






























Interactive Weather Map
Tropical Storm Tracking
New forecast layout! Learn more

10-Day Weather Forecast

Advertisements
Track Severe Weather on mobile